KDFW

Dallas-Fort Worth International Airport

Airport
ICAO code
KDFW
IATA Code
DFW
Summary
ICAO Region
NAM
ICAO Territory
Location

Dallas, Texas

Serving
Dallas
Elevation
607 ft
Coordinates
32° 53' 55" N , 97° 2' 25" W
KCC
Airport LOS
Parallel Runway Operation
Metar
KDFW 061653Z 18008KT 10SM BKN250 13/00 A3040 RMK AO2 SLP292 T01330000

Description

Large International airport serving the cities of Dallas and Fort Worth, Texas, USA.

Airport map

Aerial View

SKYbrary Partners:

Safety knowledge contributed by: